Time;durP1;ratioP1;P1;durP2;ratioP2;P2;SDS_P1;SDS_P2;PMS_P1;PMS_P2;Temp;Humidity;BMP_temperature;BMP_pressure;BME280_temperature;BME280_humidity;BME280_pressure;Samples;Min_cycle;Max_cycle;Signal;HPM_P1;HPM_P2
2022/06/20 00:01:41;;;;;;;;;;;;;;;;;;4982944;28;20006;-84
2022/06/20 00:04:07;;;;;;;;;;;;;;;;;;4968865;28;19922;-85
2022/06/20 00:06:33;;;;;;;;;;;;;;;;;;4984094;28;19969;-85
2022/06/20 00:09:00;;;;;;;;;;;;;;;;;;4965586;28;19917;-85
2022/06/20 00:11:26;;;;;;;;;;;;;;;;;;4965640;28;19940;-84
2022/06/20 00:13:52;;;;;;;;;;;;;;;;;;4965292;28;19909;-85
2022/06/20 00:16:18;;;;;;;;;;;;;;;;;;4962594;28;19914;-86
2022/06/20 00:18:44;;;;;;;;;;;;;;;;;;4965891;28;20743;-85
2022/06/20 00:21:10;;;;;;;;;;;;;;;;;;4967800;28;19949;-85
2022/06/20 00:23:36;;;;;;;;;;;;;;;;;;4963236;28;20626;-85
2022/06/20 00:26:02;;;;;;;;;;;;;;;;;;4963024;28;19913;-85
2022/06/20 00:28:28;;;;;;;;;;;;;;;;;;4968914;28;19925;-84
2022/06/20 00:30:54;;;;;;;;;;;;;;;;;;4962696;28;19917;-85
2022/06/20 00:33:19;;;;;;;;;;;;;;;;;;4962481;28;20355;-85
2022/06/20 00:35:45;;;;;;;;;;;;;;;;;;4966656;28;20517;-85
2022/06/20 00:38:11;;;;;;;;;;;;;;;;;;4969239;28;19910;-85
2022/06/20 00:40:37;;;;;;;;;;;;;;;;;;4980672;28;20218;-85
2022/06/20 00:43:03;;;;;;;;;;;;;;;;;;4968917;28;19921;-85
2022/06/20 00:45:29;;;;;;;;;;;;;;;;;;4965662;28;20420;-85
2022/06/20 00:47:55;;;;;;;;;;;;;;;;;;4969297;28;20360;-85
2022/06/20 00:50:21;;;;;;;;;;;;;;;;;;4964030;28;19948;-85
2022/06/20 00:52:47;;;;;;;;;;;;;;;;;;4979090;28;19922;-85
2022/06/20 00:55:13;;;;;;;;;;;;;;;;;;4964785;28;19937;-85
2022/06/20 00:57:39;;;;;;;;;;;;;;;;;;4975403;28;21701;-85
2022/06/20 01:00:05;;;;;;;;;;;;;;;;;;4967713;28;20274;-85
2022/06/20 01:02:30;;;;;;;;;;;;;;;;;;4964627;28;19943;-85
2022/06/20 01:04:56;;;;;;;;;;;;;;;;;;5032374;22;20742;-87
2022/06/20 01:07:22;;;;;;;;;;;;;;;;;;4927603;29;19950;-87
2022/06/20 01:09:48;;;;;;;;;;;;;;;;;;4946097;28;19914;-87
2022/06/20 01:12:14;;;;;;;;;;;;;;;;;;4933437;28;19924;-87
2022/06/20 01:14:41;;;;;;;;;;;;;;;;;;4925136;29;20279;-88
2022/06/20 01:17:06;;;;;;;;;;;;;;;;;;4948466;28;20388;-87
2022/06/20 01:19:32;;;;;;;;;;;;;;;;;;4933485;28;20012;-87
2022/06/20 01:21:58;;;;;;;;;;;;;;;;;;4947457;28;19960;-87
2022/06/20 01:24:24;;;;;;;;;;;;;;;;;;4951205;28;19969;-87
2022/06/20 01:26:50;;;;;;;;;;;;;;;;;;4945883;28;19914;-87
2022/06/20 01:29:16;;;;;;;;;;;;;;;;;;4949515;28;19918;-87
2022/06/20 01:31:42;;;;;;;;;;;;;;;;;;4950253;28;19914;-87
2022/06/20 01:34:08;;;;;;;;;;;;;;;;;;4948627;28;20014;-87
2022/06/20 01:39:18;;;;;;;;;;;;;;;;;;4957457;28;19980;-87
2022/06/20 01:44:29;;;;;;;;;;;;;;;;;;4954682;28;19917;-87
2022/06/20 01:46:55;;;;;;;;;;;;;;;;;;4948630;28;19914;-87
2022/06/20 01:49:21;;;;;;;;;;;;;;;;;;4951936;28;19910;-88
2022/06/20 01:51:47;;;;;;;;;;;;;;;;;;4948711;28;19914;-88
2022/06/20 01:54:13;;;;;;;;;;;;;;;;;;4944376;28;20025;-88
2022/06/20 01:56:39;;;;;;;;;;;;;;;;;;4952112;28;20417;-87
2022/06/20 01:59:05;;;;;;;;;;;;;;;;;;4953993;28;19927;-87
2022/06/20 02:01:33;;;;;;;;;;;;;;;;;;4937722;29;19911;-88
2022/06/20 02:03:58;;;;;;;;;;;;;;;;;;4951069;28;19918;-87
2022/06/20 02:06:31;;;;;;;;;;;;;;;;;;4938697;28;20051;-88
2022/06/20 02:08:57;;;;;;;;;;;;;;;;;;4929437;29;20359;-87
2022/06/20 02:11:23;;;;;;;;;;;;;;;;;;4958864;28;19911;-88
2022/06/20 02:13:50;;;;;;;;;;;;;;;;;;4930464;29;20009;-87
2022/06/20 02:16:16;;;;;;;;;;;;;;;;;;4932094;29;19950;-87
2022/06/20 02:18:42;;;;;;;;;;;;;;;;;;4930187;29;19962;-87
2022/06/20 02:21:17;;;;;;;;;;;;;;;;;;4929963;29;19923;-88
2022/06/20 02:23:43;;;;;;;;;;;;;;;;;;4930024;29;19914;-87
2022/06/20 02:26:09;;;;;;;;;;;;;;;;;;4945629;29;20290;-88
2022/06/20 02:28:35;;;;;;;;;;;;;;;;;;4950996;28;19911;-87
2022/06/20 02:31:01;;;;;;;;;;;;;;;;;;4943551;28;19994;-88
2022/06/20 02:33:27;;;;;;;;;;;;;;;;;;4945779;28;19918;-88
2022/06/20 02:35:53;;;;;;;;;;;;;;;;;;4932403;29;19962;-88
2022/06/20 02:38:20;;;;;;;;;;;;;;;;;;4931391;29;19915;-88
2022/06/20 02:40:47;;;;;;;;;;;;;;;;;;4947587;28;19918;-88
2022/06/20 02:43:12;;;;;;;;;;;;;;;;;;4942571;29;19975;-88
2022/06/20 02:45:38;;;;;;;;;;;;;;;;;;4944838;28;19915;-88
2022/06/20 02:48:04;;;;;;;;;;;;;;;;;;4931532;29;19938;-88
2022/06/20 02:50:30;;;;;;;;;;;;;;;;;;4915753;29;19954;-87
2022/06/20 02:52:56;;;;;;;;;;;;;;;;;;4934194;29;19941;-87
2022/06/20 02:55:22;;;;;;;;;;;;;;;;;;4929000;29;19922;-87
2022/06/20 02:57:48;;;;;;;;;;;;;;;;;;4943112;28;19915;-87
2022/06/20 03:00:14;;;;;;;;;;;;;;;;;;4918000;29;20368;-87
2022/06/20 03:02:40;;;;;;;;;;;;;;;;;;4907832;29;19922;-87
2022/06/20 03:05:06;;;;;;;;;;;;;;;;;;4931193;28;19915;-88
2022/06/20 03:07:32;;;;;;;;;;;;;;;;;;4932606;29;19918;-87
2022/06/20 03:09:58;;;;;;;;;;;;;;;;;;4949997;29;19917;-88
2022/06/20 03:12:24;;;;;;;;;;;;;;;;;;4961174;28;19950;-88
2022/06/20 03:14:50;;;;;;;;;;;;;;;;;;4949715;28;20411;-88
2022/06/20 03:17:16;;;;;;;;;;;;;;;;;;4949909;28;20350;-87
2022/06/20 03:19:42;;;;;;;;;;;;;;;;;;4952444;28;20522;-88
2022/06/20 03:22:16;;;;;;;;;;;;;;;;;;4968927;28;19950;-88
2022/06/20 03:24:43;;;;;;;;;;;;;;;;;;4969616;28;19914;-88
2022/06/20 03:27:08;;;;;;;;;;;;;;;;;;4952628;28;19933;-87
2022/06/20 03:29:34;;;;;;;;;;;;;;;;;;4944169;28;19918;-88
2022/06/20 03:32:00;;;;;;;;;;;;;;;;;;4964309;28;19946;-88
2022/06/20 03:34:26;;;;;;;;;;;;;;;;;;4942940;28;19921;-88
2022/06/20 03:36:52;;;;;;;;;;;;;;;;;;4955406;28;19938;-88
2022/06/20 03:39:18;;;;;;;;;;;;;;;;;;4951585;28;19950;-87
2022/06/20 03:41:44;;;;;;;;;;;;;;;;;;4963961;28;20481;-87
2022/06/20 03:44:10;;;;;;;;;;;;;;;;;;4936636;28;19914;-88
2022/06/20 03:46:36;;;;;;;;;;;;;;;;;;4933751;28;20037;-88
2022/06/20 03:49:02;;;;;;;;;;;;;;;;;;4960144;28;19914;-88
2022/06/20 03:51:28;;;;;;;;;;;;;;;;;;4963461;28;19917;-88
2022/06/20 03:53:54;;;;;;;;;;;;;;;;;;4963354;28;19991;-88
2022/06/20 03:56:19;;;;;;;;;;;;;;;;;;4948876;28;19926;-89
2022/06/20 03:58:45;;;;;;;;;;;;;;;;;;4938864;28;19915;-88
2022/06/20 04:01:11;;;;;;;;;;;;;;;;;;4936032;29;19911;-88
2022/06/20 04:03:37;;;;;;;;;;;;;;;;;;4935266;28;19929;-88
2022/06/20 04:06:03;;;;;;;;;;;;;;;;;;4955147;28;20427;-88
2022/06/20 04:10:57;;;;;;;;;;;;;;;;;;4936534;28;19997;-88
2022/06/20 04:11:16;;;;;;;;;;;;;;;;;;4934919;29;19958;-88
2022/06/20 04:13:42;;;;;;;;;;;;;;;;;;4942306;29;19949;-88
2022/06/20 04:16:10;;;;;;;;;;;;;;;;;;4919466;29;19989;-88
2022/06/20 04:18:36;;;;;;;;;;;;;;;;;;4936544;29;19992;-88
2022/06/20 04:21:02;;;;;;;;;;;;;;;;;;4929379;29;19919;-88
2022/06/20 04:23:30;;;;;;;;;;;;;;;;;;4933718;29;20509;-88
2022/06/20 04:25:56;;;;;;;;;;;;;;;;;;4919258;29;19918;-88
2022/06/20 04:28:21;;;;;;;;;;;;;;;;;;4944559;29;19938;-88
2022/06/20 04:30:47;;;;;;;;;;;;;;;;;;4933475;29;19911;-89
2022/06/20 04:33:13;;;;;;;;;;;;;;;;;;4929555;29;19910;-88
2022/06/20 04:35:39;;;;;;;;;;;;;;;;;;4942867;29;20451;-87
2022/06/20 04:38:05;;;;;;;;;;;;;;;;;;4940481;28;19950;-87
2022/06/20 04:40:31;;;;;;;;;;;;;;;;;;4911993;29;19915;-87
2022/06/20 04:43:01;;;;;;;;;;;;;;;;;;4943669;29;19910;-88
2022/06/20 04:45:27;;;;;;;;;;;;;;;;;;4911921;29;19922;-87
2022/06/20 04:47:52;;;;;;;;;;;;;;;;;;4916792;29;19914;-87
2022/06/20 04:50:18;;;;;;;;;;;;;;;;;;4928248;29;19922;-87
2022/06/20 04:52:44;;;;;;;;;;;;;;;;;;4935194;29;19974;-88
2022/06/20 04:55:10;;;;;;;;;;;;;;;;;;4929042;29;19915;-88
2022/06/20 04:57:36;;;;;;;;;;;;;;;;;;4910101;29;19962;-88
2022/06/20 05:00:02;;;;;;;;;;;;;;;;;;4912670;29;19930;-88
2022/06/20 05:02:28;;;;;;;;;;;;;;;;;;4911497;29;19918;-88
2022/06/20 05:04:54;;;;;;;;;;;;;;;;;;4925928;29;19918;-88
2022/06/20 05:07:26;;;;;;;;;;;;;;;;;;4931589;28;20527;-88
2022/06/20 05:09:52;;;;;;;;;;;;;;;;;;4959402;28;19917;-87
2022/06/20 05:12:18;;;;;;;;;;;;;;;;;;4933898;29;19918;-88
2022/06/20 05:14:44;;;;;;;;;;;;;;;;;;4960522;28;19921;-88
2022/06/20 05:17:10;;;;;;;;;;;;;;;;;;4945714;28;20256;-88
2022/06/20 05:19:36;;;;;;;;;;;;;;;;;;4958909;28;19915;-87
2022/06/20 05:22:02;;;;;;;;;;;;;;;;;;4961502;28;19915;-88
2022/06/20 05:24:28;;;;;;;;;;;;;;;;;;4933493;28;19970;-87
2022/06/20 05:26:54;;;;;;;;;;;;;;;;;;4963613;28;19911;-88
2022/06/20 05:29:20;;;;;;;;;;;;;;;;;;4950752;28;20521;-88
2022/06/20 05:31:46;;;;;;;;;;;;;;;;;;4958892;28;19966;-87
2022/06/20 05:34:12;;;;;;;;;;;;;;;;;;4958644;28;20499;-87
2022/06/20 05:36:38;;;;;;;;;;;;;;;;;;4961450;28;19914;-87
2022/06/20 05:39:04;;;;;;;;;;;;;;;;;;4933267;29;19914;-87
2022/06/20 05:41:30;;;;;;;;;;;;;;;;;;4964608;28;19910;-87
2022/06/20 05:43:56;;;;;;;;;;;;;;;;;;4961337;28;19953;-87
2022/06/20 05:46:21;;;;;;;;;;;;;;;;;;4956115;28;19911;-87
2022/06/20 05:48:47;;;;;;;;;;;;;;;;;;4962356;28;19910;-86
2022/06/20 05:51:13;;;;;;;;;;;;;;;;;;4931802;28;19915;-87
2022/06/20 05:53:39;;;;;;;;;;;;;;;;;;4947453;28;19915;-88
2022/06/20 05:56:05;;;;;;;;;;;;;;;;;;4963912;28;19970;-87
2022/06/20 05:58:31;;;;;;;;;;;;;;;;;;4950023;28;19960;-89
2022/06/20 06:00:57;;;;;;;;;;;;;;;;;;4946355;28;20409;-88
2022/06/20 06:03:23;;;;;;;;;;;;;;;;;;4937065;28;19910;-88
2022/06/20 06:05:49;;;;;;;;;;;;;;;;;;4960433;28;19911;-89
2022/06/20 06:08:15;;;;;;;;;;;;;;;;;;4939480;28;19985;-89
2022/06/20 06:10:41;;;;;;;;;;;;;;;;;;4954121;28;19997;-89
2022/06/20 06:13:07;;;;;;;;;;;;;;;;;;4939009;28;20071;-89
2022/06/20 06:15:33;;;;;;;;;;;;;;;;;;4969609;28;19965;-89
2022/06/20 06:17:59;;;;;;;;;;;;;;;;;;4936553;28;20452;-89
2022/06/20 06:20:25;;;;;;;;;;;;;;;;;;4937111;29;20005;-89
2022/06/20 06:22:51;;;;;;;;;;;;;;;;;;4938845;29;19950;-89
2022/06/20 06:25:16;;;;;;;;;;;;;;;;;;4954972;28;19910;-88
2022/06/20 06:27:42;;;;;;;;;;;;;;;;;;4940164;28;19918;-88
2022/06/20 06:30:08;;;;;;;;;;;;;;;;;;4972068;28;19927;-88
2022/06/20 06:32:34;;;;;;;;;;;;;;;;;;4949090;28;19958;-89
2022/06/20 06:35:00;;;;;;;;;;;;;;;;;;4964714;28;19915;-90
2022/06/20 06:37:26;;;;;;;;;;;;;;;;;;4941612;28;19906;-87
2022/06/20 06:39:52;;;;;;;;;;;;;;;;;;4965370;28;19930;-88
2022/06/20 06:42:18;;;;;;;;;;;;;;;;;;4968012;28;19911;-92
2022/06/20 06:44:44;;;;;;;;;;;;;;;;;;4953860;28;20441;-87
2022/06/20 06:47:10;;;;;;;;;;;;;;;;;;4939396;29;19929;-87
2022/06/20 06:49:36;;;;;;;;;;;;;;;;;;4936250;28;20660;-86
2022/06/20 06:52:02;;;;;;;;;;;;;;;;;;4926596;28;19974;-87
2022/06/20 06:54:28;;;;;;;;;;;;;;;;;;4964542;28;19910;-85
2022/06/20 06:56:53;;;;;;;;;;;;;;;;;;4936345;28;19961;-85
2022/06/20 06:59:19;;;;;;;;;;;;;;;;;;4952839;28;19914;-85
2022/06/20 07:01:45;;;;;;;;;;;;;;;;;;4966579;28;19934;-85
2022/06/20 07:04:11;;;;;;;;;;;;;;;;;;4945410;28;20443;-85
2022/06/20 07:06:37;;;;;;;;;;;;;;;;;;4956438;28;19919;-86
2022/06/20 07:09:04;;;;;;;;;;;;;;;;;;4929076;29;20299;-85
2022/06/20 07:11:29;;;;;;;;;;;;;;;;;;4910417;29;20619;-85
2022/06/20 07:13:55;;;;;;;;;;;;;;;;;;4921314;29;19946;-85
2022/06/20 07:16:21;;;;;;;;;;;;;;;;;;4907805;29;19923;-85
2022/06/20 07:18:47;;;;;;;;;;;;;;;;;;4917469;29;19919;-86
2022/06/20 07:21:13;;;;;;;;;;;;;;;;;;4907659;29;19925;-84
2022/06/20 07:23:39;;;;;;;;;;;;;;;;;;4912250;29;19919;-84
2022/06/20 07:26:05;;;;;;;;;;;;;;;;;;4917031;29;20005;-85
2022/06/20 07:28:34;;;;;;;;;;;;;;;;;;4918941;29;19986;-84
2022/06/20 07:31:00;;;;;;;;;;;;;;;;;;4939827;29;19911;-84
2022/06/20 07:33:26;;;;;;;;;;;;;;;;;;4915030;29;19910;-85
2022/06/20 07:35:51;;;;;;;;;;;;;;;;;;4940637;29;20013;-85
2022/06/20 07:38:17;;;;;;;;;;;;;;;;;;4926405;29;19917;-85
2022/06/20 07:40:43;;;;;;;;;;;;;;;;;;4934763;28;20651;-86
2022/06/20 07:43:10;;;;;;;;;;;;;;;;;;4924527;29;19926;-86
2022/06/20 07:45:36;;;;;;;;;;;;;;;;;;4929525;29;19910;-86
2022/06/20 07:48:02;;;;;;;;;;;;;;;;;;4912588;29;19910;-85
2022/06/20 07:50:28;;;;;;;;;;;;;;;;;;4942740;29;19907;-86
2022/06/20 07:52:54;;;;;;;;;;;;;;;;;;4942873;28;19925;-85
2022/06/20 07:55:19;;;;;;;;;;;;;;;;;;4938222;29;19906;-85
2022/06/20 07:57:45;;;;;;;;;;;;;;;;;;4918020;29;19973;-86
2022/06/20 08:00:11;;;;;;;;;;;;;;;;;;4942950;28;19914;-86
2022/06/20 08:02:37;;;;;;;;;;;;;;;;;;4939282;28;20457;-86
2022/06/20 08:05:03;;;;;;;;;;;;;;;;;;4928307;29;19953;-86
2022/06/20 08:07:29;;;;;;;;;;;;;;;;;;4929552;28;20267;-85
2022/06/20 08:09:55;;;;;;;;;;;;;;;;;;4931413;29;19925;-86
2022/06/20 08:12:21;;;;;;;;;;;;;;;;;;4943146;28;19929;-86
2022/06/20 08:14:47;;;;;;;;;;;;;;;;;;4933054;29;19989;-86
2022/06/20 08:17:13;;;;;;;;;;;;;;;;;;4964769;28;20815;-86
2022/06/20 08:19:39;;;;;;;;;;;;;;;;;;4957661;28;19918;-86
2022/06/20 08:22:05;;;;;;;;;;;;;;;;;;4960080;28;19925;-86
2022/06/20 08:24:30;;;;;;;;;;;;;;;;;;4933907;29;19925;-86
2022/06/20 08:26:56;;;;;;;;;;;;;;;;;;4948054;28;19910;-86
2022/06/20 08:29:22;;;;;;;;;;;;;;;;;;4946348;28;20412;-86
2022/06/20 08:31:48;;;;;;;;;;;;;;;;;;4958316;28;19910;-86
2022/06/20 08:34:17;;;;;;;;;;;;;;;;;;4944901;28;19914;-86
2022/06/20 08:36:43;;;;;;;;;;;;;;;;;;4962714;28;19918;-87
2022/06/20 08:39:09;;;;;;;;;;;;;;;;;;4934153;28;19915;-86
2022/06/20 08:41:35;;;;;;;;;;;;;;;;;;4947294;28;19914;-86
2022/06/20 08:44:01;;;;;;;;;;;;;;;;;;4932865;28;19914;-85
2022/06/20 08:46:27;;;;;;;;;;;;;;;;;;4945884;28;19914;-86
2022/06/20 08:48:53;;;;;;;;;;;;;;;;;;4945147;28;19914;-86
2022/06/20 08:51:22;;;;;;;;;;;;;;;;;;4940889;28;19915;-86
2022/06/20 08:53:48;;;;;;;;;;;;;;;;;;4945181;28;20381;-86
2022/06/20 08:56:14;;;;;;;;;;;;;;;;;;4942472;28;19922;-86
2022/06/20 08:58:43;;;;;;;;;;;;;;;;;;4954485;28;19919;-86
2022/06/20 09:01:10;;;;;;;;;;;;;;;;;;4945416;28;20285;-86
2022/06/20 09:03:36;;;;;;;;;;;;;;;;;;4955337;28;19917;-85
2022/06/20 09:06:02;;;;;;;;;;;;;;;;;;4952413;28;19911;-86
2022/06/20 09:08:27;;;;;;;;;;;;;;;;;;4925068;28;19946;-86
2022/06/20 09:10:53;;;;;;;;;;;;;;;;;;4923082;29;19922;-85
2022/06/20 09:13:20;;;;;;;;;;;;;;;;;;4924559;29;20256;-86
2022/06/20 09:15:46;;;;;;;;;;;;;;;;;;4911562;29;20330;-86
2022/06/20 09:18:12;;;;;;;;;;;;;;;;;;4939044;28;19919;-85
2022/06/20 09:20:38;;;;;;;;;;;;;;;;;;4915292;29;19958;-86
2022/06/20 09:23:04;;;;;;;;;;;;;;;;;;4923583;29;19911;-86
2022/06/20 09:25:30;;;;;;;;;;;;;;;;;;4915251;29;19921;-86
2022/06/20 09:27:56;;;;;;;;;;;;;;;;;;4927652;29;19910;-86
2022/06/20 09:30:22;;;;;;;;;;;;;;;;;;4911196;29;19944;-86
2022/06/20 09:32:47;;;;;;;;;;;;;;;;;;4912792;29;19934;-86
2022/06/20 09:35:13;;;;;;;;;;;;;;;;;;4925148;29;20680;-86
2022/06/20 09:37:39;;;;;;;;;;;;;;;;;;4922026;29;19998;-86
2022/06/20 09:40:05;;;;;;;;;;;;;;;;;;4927200;29;20650;-85
2022/06/20 09:42:31;;;;;;;;;;;;;;;;;;4927757;29;19919;-86
2022/06/20 09:44:58;;;;;;;;;;;;;;;;;;4945126;29;19922;-86
2022/06/20 09:47:23;;;;;;;;;;;;;;;;;;4939509;28;19911;-86
2022/06/20 09:49:50;;;;;;;;;;;;;;;;;;4941741;28;19907;-85
2022/06/20 09:52:16;;;;;;;;;;;;;;;;;;4945233;29;20942;-86
2022/06/20 09:54:42;;;;;;;;;;;;;;;;;;4916442;29;19914;-86
2022/06/20 09:57:11;;;;;;;;;;;;;;;;;;4917684;29;19985;-86
2022/06/20 09:59:37;;;;;;;;;;;;;;;;;;4915332;29;19973;-86
2022/06/20 10:02:03;;;;;;;;;;;;;;;;;;4909566;29;21500;-85
2022/06/20 10:04:29;;;;;;;;;;;;;;;;;;4925945;29;19973;-85
2022/06/20 10:06:55;;;;;;;;;;;;;;;;;;4939848;28;19927;-85
2022/06/20 10:09:21;;;;;;;;;;;;;;;;;;4916080;29;20371;-85
2022/06/20 10:11:46;;;;;;;;;;;;;;;;;;4914561;29;19921;-86
2022/06/20 10:14:12;;;;;;;;;;;;;;;;;;4940679;28;19911;-86
2022/06/20 10:16:38;;;;;;;;;;;;;;;;;;4927858;29;19915;-86
2022/06/20 10:19:04;;;;;;;;;;;;;;;;;;4917335;29;19938;-85
2022/06/20 10:21:30;;;;;;;;;;;;;;;;;;4943748;29;19914;-85
2022/06/20 10:23:56;;;;;;;;;;;;;;;;;;4931000;29;19949;-86
2022/06/20 10:26:22;;;;;;;;;;;;;;;;;;4929806;29;19957;-85
2022/06/20 10:28:48;;;;;;;;;;;;;;;;;;4918503;29;19961;-86
2022/06/20 10:31:14;;;;;;;;;;;;;;;;;;4920182;29;19911;-86
2022/06/20 10:33:40;;;;;;;;;;;;;;;;;;4943897;28;19914;-86
2022/06/20 10:36:05;;;;;;;;;;;;;;;;;;4939052;29;19915;-86
2022/06/20 10:38:31;;;;;;;;;;;;;;;;;;4946342;29;19910;-85
2022/06/20 10:41:03;;;;;;;;;;;;;;;;;;4940755;29;19969;-86
2022/06/20 10:43:29;;;;;;;;;;;;;;;;;;4943149;29;20256;-86
2022/06/20 10:45:55;;;;;;;;;;;;;;;;;;4945874;29;19917;-86
2022/06/20 10:48:21;;;;;;;;;;;;;;;;;;4944662;28;19910;-86
2022/06/20 10:50:47;;;;;;;;;;;;;;;;;;4916176;29;19911;-85
2022/06/20 10:53:13;;;;;;;;;;;;;;;;;;4914640;29;19914;-86
2022/06/20 10:55:39;;;;;;;;;;;;;;;;;;4946485;29;20222;-86
2022/06/20 10:58:05;;;;;;;;;;;;;;;;;;4945918;29;19918;-85
2022/06/20 11:00:31;;;;;;;;;;;;;;;;;;4930507;29;20324;-85
2022/06/20 11:02:57;;;;;;;;;;;;;;;;;;4944629;29;19914;-86
2022/06/20 11:05:23;;;;;;;;;;;;;;;;;;4930058;29;20367;-86
2022/06/20 11:07:49;;;;;;;;;;;;;;;;;;4927903;28;19919;-85
2022/06/20 11:10:15;;;;;;;;;;;;;;;;;;4949015;28;20417;-86
2022/06/20 11:12:41;;;;;;;;;;;;;;;;;;4936800;29;19977;-86
2022/06/20 11:15:08;;;;;;;;;;;;;;;;;;4944763;28;19919;-86
2022/06/20 11:17:34;;;;;;;;;;;;;;;;;;4951268;28;19917;-86
2022/06/20 11:20:00;;;;;;;;;;;;;;;;;;4939206;29;19918;-86
2022/06/20 11:22:26;;;;;;;;;;;;;;;;;;4942648;29;19915;-86
2022/06/20 11:24:52;;;;;;;;;;;;;;;;;;4961234;28;19918;-85
2022/06/20 11:27:18;;;;;;;;;;;;;;;;;;4937054;29;19915;-86
2022/06/20 11:29:44;;;;;;;;;;;;;;;;;;4928864;28;20009;-85
2022/06/20 11:32:10;;;;;;;;;;;;;;;;;;4943169;28;19916;-85
2022/06/20 11:34:36;;;;;;;;;;;;;;;;;;4966136;28;19954;-85
2022/06/20 11:37:02;;;;;;;;;;;;;;;;;;4945181;28;20290;-85
2022/06/20 11:39:28;;;;;;;;;;;;;;;;;;4938143;28;19911;-85
2022/06/20 11:41:54;;;;;;;;;;;;;;;;;;4962551;28;20635;-85
2022/06/20 11:44:20;;;;;;;;;;;;;;;;;;4965370;28;19941;-85
2022/06/20 11:46:46;;;;;;;;;;;;;;;;;;4933977;28;19914;-86
2022/06/20 11:49:12;;;;;;;;;;;;;;;;;;4951983;29;19921;-86
2022/06/20 11:51:38;;;;;;;;;;;;;;;;;;4961167;28;19907;-85
2022/06/20 11:54:04;;;;;;;;;;;;;;;;;;4963411;28;19913;-85
2022/06/20 11:56:30;;;;;;;;;;;;;;;;;;4960927;28;19934;-85
2022/06/20 11:58:57;;;;;;;;;;;;;;;;;;4966117;28;20366;-85
2022/06/20 12:01:24;;;;;;;;;;;;;;;;;;4948731;28;19914;-86
2022/06/20 12:03:53;;;;;;;;;;;;;;;;;;4963319;28;20405;-85
2022/06/20 12:06:18;;;;;;;;;;;;;;;;;;4929958;29;20159;-85
2022/06/20 12:08:44;;;;;;;;;;;;;;;;;;4948578;28;19922;-85
2022/06/20 12:11:10;;;;;;;;;;;;;;;;;;4937796;29;19985;-85
2022/06/20 12:13:36;;;;;;;;;;;;;;;;;;4965061;28;19911;-85
2022/06/20 12:16:02;;;;;;;;;;;;;;;;;;4950530;28;19910;-86
2022/06/20 12:18:29;;;;;;;;;;;;;;;;;;4930862;28;19917;-85
2022/06/20 12:23:40;;;;;;;;;;;;;;;;;;4949119;28;19926;-86
2022/06/20 12:26:06;;;;;;;;;;;;;;;;;;4945638;28;20401;-85
2022/06/20 12:28:32;;;;;;;;;;;;;;;;;;4957619;28;19906;-85
2022/06/20 12:30:58;;;;;;;;;;;;;;;;;;4950902;28;19921;-85
2022/06/20 12:33:24;;;;;;;;;;;;;;;;;;4962766;28;19907;-85
2022/06/20 12:35:50;;;;;;;;;;;;;;;;;;4929515;28;19911;-86
2022/06/20 12:38:15;;;;;;;;;;;;;;;;;;4959561;28;19911;-86
2022/06/20 12:40:41;;;;;;;;;;;;;;;;;;4934503;28;19915;-86
2022/06/20 12:43:07;;;;;;;;;;;;;;;;;;4933314;28;19997;-86
2022/06/20 12:45:33;;;;;;;;;;;;;;;;;;4930315;29;20021;-86
2022/06/20 12:48:00;;;;;;;;;;;;;;;;;;4944432;28;19964;-86
2022/06/20 12:50:26;;;;;;;;;;;;;;;;;;4929528;28;19925;-86
2022/06/20 12:52:52;;;;;;;;;;;;;;;;;;4920297;28;19942;-86
2022/06/20 12:55:18;;;;;;;;;;;;;;;;;;4928915;28;19964;-86
2022/06/20 12:57:43;;;;;;;;;;;;;;;;;;4936723;29;19920;-86
2022/06/20 13:00:09;;;;;;;;;;;;;;;;;;4962715;28;19914;-86
2022/06/20 13:02:36;;;;;;;;;;;;;;;;;;4933895;29;20842;-86
2022/06/20 13:05:05;;;;;;;;;;;;;;;;;;4950205;28;19957;-86
2022/06/20 13:07:31;;;;;;;;;;;;;;;;;;4933354;28;19957;-87
2022/06/20 13:09:57;;;;;;;;;;;;;;;;;;4966188;28;19957;-86
2022/06/20 13:12:32;;;;;;;;;;;;;;;;;;4949382;28;19944;-86
2022/06/20 13:14:59;;;;;;;;;;;;;;;;;;4945023;28;19941;-86
2022/06/20 13:17:25;;;;;;;;;;;;;;;;;;4939267;29;20462;-86
2022/06/20 13:19:51;;;;;;;;;;;;;;;;;;4952104;28;19918;-87
2022/06/20 13:22:16;;;;;;;;;;;;;;;;;;4966445;28;19969;-86
2022/06/20 13:24:42;;;;;;;;;;;;;;;;;;4939325;29;19974;-86
2022/06/20 13:27:08;;;;;;;;;;;;;;;;;;4952898;28;19910;-86
2022/06/20 13:29:34;;;;;;;;;;;;;;;;;;4945628;28;19910;-86
2022/06/20 13:32:00;;;;;;;;;;;;;;;;;;4944102;28;19973;-86
2022/06/20 13:34:26;;;;;;;;;;;;;;;;;;4949074;28;20393;-86
2022/06/20 13:36:52;;;;;;;;;;;;;;;;;;4946574;28;19993;-87
2022/06/20 13:39:18;;;;;;;;;;;;;;;;;;4943389;28;20328;-87
2022/06/20 13:41:44;;;;;;;;;;;;;;;;;;4929577;29;20380;-83
2022/06/20 13:44:10;;;;;;;;;;;;;;;;;;4921499;28;19910;-83
2022/06/20 13:46:35;;;;;;;;;;;;;;;;;;4955364;28;19929;-85
2022/06/20 13:49:01;;;;;;;;;;;;;;;;;;4948352;28;19911;-85
2022/06/20 13:51:28;;;;;;;;;;;;;;;;;;4948651;28;19965;-85
2022/06/20 13:53:54;;;;;;;;;;;;;;;;;;4929109;29;19918;-84
2022/06/20 13:56:20;;;;;;;;;;;;;;;;;;4966254;28;19921;-86
2022/06/20 13:58:46;;;;;;;;;;;;;;;;;;4923045;28;19969;-85
2022/06/20 14:01:12;;;;;;;;;;;;;;;;;;4926896;28;20437;-85
2022/06/20 14:03:38;;;;;;;;;;;;;;;;;;4959691;28;20374;-86
2022/06/20 14:06:04;;;;;;;;;;;;;;;;;;4928430;29;19914;-85
2022/06/20 14:08:30;;;;;;;;;;;;;;;;;;4940668;28;19918;-85
2022/06/20 14:10:57;;;;;;;;;;;;;;;;;;4939048;28;20385;-85
2022/06/20 14:13:23;;;;;;;;;;;;;;;;;;4939853;28;19950;-84
2022/06/20 14:15:49;;;;;;;;;;;;;;;;;;4953453;28;19914;-86
2022/06/20 14:18:15;;;;;;;;;;;;;;;;;;4939920;28;19965;-85
2022/06/20 14:20:41;;;;;;;;;;;;;;;;;;4944120;28;19914;-86
2022/06/20 14:23:07;;;;;;;;;;;;;;;;;;4931259;28;19921;-85
2022/06/20 14:25:33;;;;;;;;;;;;;;;;;;4957889;28;19921;-86
2022/06/20 14:28:02;;;;;;;;;;;;;;;;;;4944891;28;20013;-85
2022/06/20 14:30:28;;;;;;;;;;;;;;;;;;4941388;28;19921;-85
2022/06/20 14:32:54;;;;;;;;;;;;;;;;;;4944537;28;19918;-86
2022/06/20 14:35:20;;;;;;;;;;;;;;;;;;4957131;28;20475;-85
2022/06/20 14:37:46;;;;;;;;;;;;;;;;;;4961925;28;19918;-85
2022/06/20 14:40:12;;;;;;;;;;;;;;;;;;4944152;28;19972;-84
2022/06/20 14:42:39;;;;;;;;;;;;;;;;;;4930108;29;19911;-85
2022/06/20 14:45:05;;;;;;;;;;;;;;;;;;4956473;28;20314;-85
2022/06/20 14:47:31;;;;;;;;;;;;;;;;;;4942708;28;19911;-85
2022/06/20 14:49:57;;;;;;;;;;;;;;;;;;4958294;28;19977;-86
2022/06/20 14:52:23;;;;;;;;;;;;;;;;;;4960321;28;20016;-85
2022/06/20 14:54:49;;;;;;;;;;;;;;;;;;4956658;28;19961;-85
2022/06/20 14:57:16;;;;;;;;;;;;;;;;;;4930933;28;20250;-85
2022/06/20 14:59:41;;;;;;;;;;;;;;;;;;4950764;28;19942;-84
2022/06/20 15:02:07;;;;;;;;;;;;;;;;;;4944074;28;20013;-84
2022/06/20 15:04:34;;;;;;;;;;;;;;;;;;4960716;28;20282;-84
2022/06/20 15:07:00;;;;;;;;;;;;;;;;;;4958501;28;19914;-85
2022/06/20 15:09:26;;;;;;;;;;;;;;;;;;4926388;28;19930;-85
2022/06/20 15:11:52;;;;;;;;;;;;;;;;;;4911997;29;19911;-84
2022/06/20 15:14:18;;;;;;;;;;;;;;;;;;4932533;29;19918;-85
2022/06/20 15:16:44;;;;;;;;;;;;;;;;;;4925618;29;19902;-84
2022/06/20 15:19:10;;;;;;;;;;;;;;;;;;4956388;29;20189;-84
2022/06/20 15:21:36;;;;;;;;;;;;;;;;;;4951091;29;19914;-85
2022/06/20 15:24:02;;;;;;;;;;;;;;;;;;4935109;29;19922;-85
2022/06/20 15:26:27;;;;;;;;;;;;;;;;;;4928357;29;19989;-85
2022/06/20 15:28:53;;;;;;;;;;;;;;;;;;4937404;28;19927;-86
2022/06/20 15:31:19;;;;;;;;;;;;;;;;;;4934766;28;20026;-86
2022/06/20 15:33:45;;;;;;;;;;;;;;;;;;4924741;29;20001;-86
2022/06/20 15:36:11;;;;;;;;;;;;;;;;;;4931123;28;19914;-86
2022/06/20 15:38:38;;;;;;;;;;;;;;;;;;4937177;28;20009;-87
2022/06/20 15:41:04;;;;;;;;;;;;;;;;;;4925028;29;19978;-86
2022/06/20 15:43:29;;;;;;;;;;;;;;;;;;4912483;29;19907;-86
2022/06/20 15:45:55;;;;;;;;;;;;;;;;;;4939849;28;20366;-86
2022/06/20 15:48:21;;;;;;;;;;;;;;;;;;4939598;28;19919;-86
2022/06/20 15:50:47;;;;;;;;;;;;;;;;;;4916423;29;19910;-86
2022/06/20 15:53:13;;;;;;;;;;;;;;;;;;4920224;29;19911;-87
2022/06/20 15:55:39;;;;;;;;;;;;;;;;;;4939968;28;19911;-86
2022/06/20 15:58:05;;;;;;;;;;;;;;;;;;4942356;29;19917;-86
2022/06/20 16:00:31;;;;;;;;;;;;;;;;;;4940533;28;20620;-86
2022/06/20 16:02:57;;;;;;;;;;;;;;;;;;4936841;28;20374;-86
2022/06/20 16:05:23;;;;;;;;;;;;;;;;;;4921798;29;19921;-86
2022/06/20 16:07:48;;;;;;;;;;;;;;;;;;4927918;28;19970;-86
2022/06/20 16:10:15;;;;;;;;;;;;;;;;;;4955180;28;19922;-86
2022/06/20 16:12:41;;;;;;;;;;;;;;;;;;4926924;28;20405;-86
2022/06/20 16:15:07;;;;;;;;;;;;;;;;;;4930281;28;20565;-87
2022/06/20 16:17:33;;;;;;;;;;;;;;;;;;4926369;28;19918;-87
2022/06/20 16:19:59;;;;;;;;;;;;;;;;;;4929291;28;19937;-86
2022/06/20 16:22:26;;;;;;;;;;;;;;;;;;4942511;28;19965;-86
2022/06/20 16:24:52;;;;;;;;;;;;;;;;;;4946670;28;19914;-87
2022/06/20 16:27:18;;;;;;;;;;;;;;;;;;4946119;28;20290;-86
2022/06/20 16:29:53;;;;;;;;;;;;;;;;;;4930665;29;19917;-87
2022/06/20 16:32:19;;;;;;;;;;;;;;;;;;4954890;28;19962;-86
2022/06/20 16:34:44;;;;;;;;;;;;;;;;;;4958474;28;19915;-86
2022/06/20 16:37:10;;;;;;;;;;;;;;;;;;4929047;28;19921;-86
2022/06/20 16:39:36;;;;;;;;;;;;;;;;;;4932086;28;19966;-86
2022/06/20 16:42:02;;;;;;;;;;;;;;;;;;4956626;28;19957;-86
2022/06/20 16:44:28;;;;;;;;;;;;;;;;;;4941503;28;19945;-86
2022/06/20 16:46:54;;;;;;;;;;;;;;;;;;4958106;28;19941;-86